METAR Data
IDs: Format: Raw Decoded Include TAF

Data at: 0347 UTC 06 Dec 2019

METAR for:KALO (Waterloo Rgnl, IA, US)
Text:KALO 060254Z AUTO 32012KT 10SM CLR 03/M01 A2996 RMK AO2 SLP155 T00281006 51022
Temperature: 2.8°C ( 37°F)
Dewpoint: -0.6°C ( 31°F) [RH = 78%]
Pressure (altimeter):29.96 inches Hg (1014.6 mb) [Sea level pressure: 1015.5 mb]
Winds:from the NW (320 degrees) at 14 MPH (12 knots; 6.2 m/s)
Visibility:10 or more sm (16+ km)
Ceiling:at least 12,000 feet AGL
Clouds:sky clear below 12,000 feet AGL
QC Flag:automated observation with no human augmentation